sensor_id;sensor_type;location;lat;lon;timestamp;pressure;altitude;pressure_sealevel;temperature;humidity
12868;BME280;33517;49.866;8.320;2023-03-14T00:01:08;98554.97;;;11.47;91.17
12868;BME280;33517;49.866;8.320;2023-03-14T00:04:03;98572.63;;;11.46;91.24
12868;BME280;33517;49.866;8.320;2023-03-14T00:06:55;98586.41;;;11.48;90.63
12868;BME280;33517;49.866;8.320;2023-03-14T00:09:48;98594.72;;;11.45;90.44
12868;BME280;33517;49.866;8.320;2023-03-14T00:12:40;98592.72;;;11.41;90.77
12868;BME280;33517;49.866;8.320;2023-03-14T00:15:32;98578.00;;;11.33;91.43
12868;BME280;33517;49.866;8.320;2023-03-14T00:18:24;98572.34;;;11.30;91.14
12868;BME280;33517;49.866;8.320;2023-03-14T00:21:18;98568.72;;;11.31;90.57
12868;BME280;33517;49.866;8.320;2023-03-14T00:24:10;98572.69;;;11.40;90.04
12868;BME280;33517;49.866;8.320;2023-03-14T00:27:02;98566.56;;;11.46;89.38
12868;BME280;33517;49.866;8.320;2023-03-14T00:29:54;98550.25;;;11.55;88.18
12868;BME280;33517;49.866;8.320;2023-03-14T00:32:45;98562.13;;;11.64;87.41
12868;BME280;33517;49.866;8.320;2023-03-14T00:35:37;98543.97;;;11.56;87.81
12868;BME280;33517;49.866;8.320;2023-03-14T00:38:31;98543.38;;;11.54;87.31
12868;BME280;33517;49.866;8.320;2023-03-14T00:41:24;98541.81;;;11.47;87.28
12868;BME280;33517;49.866;8.320;2023-03-14T00:44:15;98535.00;;;11.39;87.81
12868;BME280;33517;49.866;8.320;2023-03-14T00:47:07;98543.75;;;11.33;88.47
12868;BME280;33517;49.866;8.320;2023-03-14T00:49:59;98533.06;;;11.28;87.96
12868;BME280;33517;49.866;8.320;2023-03-14T00:52:51;98547.09;;;11.22;88.50
12868;BME280;33517;49.866;8.320;2023-03-14T00:55:45;98546.88;;;11.24;88.53
12868;BME280;33517;49.866;8.320;2023-03-14T00:58:37;98543.66;;;11.22;89.20
12868;BME280;33517;49.866;8.320;2023-03-14T01:01:28;98555.00;;;11.22;88.51
12868;BME280;33517;49.866;8.320;2023-03-14T01:04:20;98563.69;;;11.23;88.34
12868;BME280;33517;49.866;8.320;2023-03-14T01:07:12;98574.66;;;11.20;88.36
12868;BME280;33517;49.866;8.320;2023-03-14T01:10:06;98579.91;;;11.20;88.70
12868;BME280;33517;49.866;8.320;2023-03-14T01:13:00;98582.97;;;11.17;88.76
12868;BME280;33517;49.866;8.320;2023-03-14T01:15:51;98566.75;;;11.20;88.96
12868;BME280;33517;49.866;8.320;2023-03-14T01:18:44;98557.63;;;11.22;88.86
12868;BME280;33517;49.866;8.320;2023-03-14T01:21:36;98565.25;;;11.30;89.19
12868;BME280;33517;49.866;8.320;2023-03-14T01:24:28;98558.78;;;11.33;88.91
12868;BME280;33517;49.866;8.320;2023-03-14T01:27:20;98550.44;;;11.36;89.23
12868;BME280;33517;49.866;8.320;2023-03-14T01:30:14;98542.84;;;11.46;88.25
12868;BME280;33517;49.866;8.320;2023-03-14T01:33:06;98551.34;;;11.48;88.11
12868;BME280;33517;49.866;8.320;2023-03-14T01:35:58;98544.25;;;11.48;88.65
12868;BME280;33517;49.866;8.320;2023-03-14T01:38:49;98534.94;;;11.46;88.55
12868;BME280;33517;49.866;8.320;2023-03-14T01:41:41;98531.72;;;11.44;88.19
12868;BME280;33517;49.866;8.320;2023-03-14T01:44:47;98526.47;;;11.44;88.83
12868;BME280;33517;49.866;8.320;2023-03-14T01:47:42;98513.28;;;11.44;89.10
12868;BME280;33517;49.866;8.320;2023-03-14T01:51:09;98522.38;;;11.48;88.35
12868;BME280;33517;49.866;8.320;2023-03-14T01:54:10;98514.03;;;11.51;88.54
12868;BME280;33517;49.866;8.320;2023-03-14T01:57:06;98511.38;;;11.51;88.26
12868;BME280;33517;49.866;8.320;2023-03-14T02:00:04;98497.41;;;11.50;88.23
12868;BME280;33517;49.866;8.320;2023-03-14T02:03:08;98491.78;;;11.47;88.44
12868;BME280;33517;49.866;8.320;2023-03-14T02:06:06;98484.25;;;11.50;89.17
12868;BME280;33517;49.866;8.320;2023-03-14T02:09:00;98472.16;;;11.43;89.09
12868;BME280;33517;49.866;8.320;2023-03-14T02:11:51;98468.56;;;11.37;89.27
12868;BME280;33517;49.866;8.320;2023-03-14T02:14:44;98459.94;;;11.30;89.56
12868;BME280;33517;49.866;8.320;2023-03-14T02:17:40;98472.38;;;11.23;89.95
12868;BME280;33517;49.866;8.320;2023-03-14T02:20:38;98458.44;;;11.16;90.21
12868;BME280;33517;49.866;8.320;2023-03-14T02:23:40;98456.84;;;11.15;90.22
12868;BME280;33517;49.866;8.320;2023-03-14T02:26:38;98440.25;;;11.14;90.13
12868;BME280;33517;49.866;8.320;2023-03-14T02:29:36;98438.47;;;11.08;89.87
12868;BME280;33517;49.866;8.320;2023-03-14T02:32:32;98428.75;;;11.09;89.92
12868;BME280;33517;49.866;8.320;2023-03-14T02:35:27;98433.47;;;11.00;90.26
12868;BME280;33517;49.866;8.320;2023-03-14T02:38:24;98431.72;;;10.94;90.24
12868;BME280;33517;49.866;8.320;2023-03-14T02:41:19;98423.25;;;10.92;90.48
12868;BME280;33517;49.866;8.320;2023-03-14T02:44:11;98428.69;;;10.91;91.04
12868;BME280;33517;49.866;8.320;2023-03-14T02:47:04;98436.81;;;10.89;90.91
12868;BME280;33517;49.866;8.320;2023-03-14T02:50:00;98424.91;;;10.87;91.00
12868;BME280;33517;49.866;8.320;2023-03-14T02:52:53;98424.94;;;10.80;91.15
12868;BME280;33517;49.866;8.320;2023-03-14T02:55:46;98430.84;;;10.76;91.77
12868;BME280;33517;49.866;8.320;2023-03-14T02:58:38;98424.94;;;10.80;92.05
12868;BME280;33517;49.866;8.320;2023-03-14T03:01:30;98424.81;;;10.75;91.87
12868;BME280;33517;49.866;8.320;2023-03-14T03:04:23;98437.97;;;10.75;92.22
12868;BME280;33517;49.866;8.320;2023-03-14T03:07:15;98437.97;;;10.75;92.75
12868;BME280;33517;49.866;8.320;2023-03-14T03:10:08;98433.28;;;10.77;92.17
12868;BME280;33517;49.866;8.320;2023-03-14T03:13:00;98427.00;;;10.78;92.16
12868;BME280;33517;49.866;8.320;2023-03-14T03:15:52;98431.44;;;10.78;91.90
12868;BME280;33517;49.866;8.320;2023-03-14T03:18:44;98414.28;;;10.75;92.38
12868;BME280;33517;49.866;8.320;2023-03-14T03:21:37;98421.72;;;10.78;92.21
12868;BME280;33517;49.866;8.320;2023-03-14T03:24:29;98408.13;;;10.81;91.59
12868;BME280;33517;49.866;8.320;2023-03-14T03:27:21;98420.50;;;10.81;91.19
12868;BME280;33517;49.866;8.320;2023-03-14T03:30:13;98404.06;;;10.85;90.75
12868;BME280;33517;49.866;8.320;2023-03-14T03:33:05;98405.69;;;10.86;90.25
12868;BME280;33517;49.866;8.320;2023-03-14T03:35:57;98385.44;;;10.87;90.80
12868;BME280;33517;49.866;8.320;2023-03-14T03:38:50;98375.69;;;10.87;89.75
12868;BME280;33517;49.866;8.320;2023-03-14T03:41:42;98376.28;;;10.89;89.62
12868;BME280;33517;49.866;8.320;2023-03-14T03:44:34;98366.22;;;10.86;89.78
12868;BME280;33517;49.866;8.320;2023-03-14T03:47:26;98367.06;;;10.80;89.44
12868;BME280;33517;49.866;8.320;2023-03-14T03:50:18;98359.63;;;10.77;89.16
12868;BME280;33517;49.866;8.320;2023-03-14T03:53:10;98370.34;;;10.76;89.30
12868;BME280;33517;49.866;8.320;2023-03-14T03:56:03;98367.94;;;10.74;89.14
12868;BME280;33517;49.866;8.320;2023-03-14T03:58:56;98360.84;;;10.75;89.77
12868;BME280;33517;49.866;8.320;2023-03-14T04:01:47;98360.00;;;10.81;89.30
12868;BME280;33517;49.866;8.320;2023-03-14T04:04:39;98363.63;;;10.80;88.67
12868;BME280;33517;49.866;8.320;2023-03-14T04:07:31;98359.63;;;10.77;88.53
12868;BME280;33517;49.866;8.320;2023-03-14T04:10:23;98371.97;;;10.77;88.13
12868;BME280;33517;49.866;8.320;2023-03-14T04:13:16;98374.00;;;10.75;88.02
12868;BME280;33517;49.866;8.320;2023-03-14T04:16:14;98379.75;;;10.65;88.18
12868;BME280;33517;49.866;8.320;2023-03-14T04:19:07;98374.50;;;10.65;88.01
12868;BME280;33517;49.866;8.320;2023-03-14T04:21:58;98362.19;;;10.59;88.55
12868;BME280;33517;49.866;8.320;2023-03-14T04:24:50;98368.03;;;10.61;88.31
12868;BME280;33517;49.866;8.320;2023-03-14T04:27:42;98364.22;;;10.57;88.38
12868;BME280;33517;49.866;8.320;2023-03-14T04:30:35;98352.03;;;10.63;87.71
12868;BME280;33517;49.866;8.320;2023-03-14T04:33:27;98364.97;;;10.64;88.00
12868;BME280;33517;49.866;8.320;2023-03-14T04:36:19;98355.72;;;10.62;87.63
12868;BME280;33517;49.866;8.320;2023-03-14T04:39:11;98370.47;;;10.63;88.06
12868;BME280;33517;49.866;8.320;2023-03-14T04:42:03;98369.22;;;10.65;88.42
12868;BME280;33517;49.866;8.320;2023-03-14T04:44:54;98353.81;;;10.69;88.70
12868;BME280;33517;49.866;8.320;2023-03-14T04:47:48;98354.38;;;10.77;88.11
12868;BME280;33517;49.866;8.320;2023-03-14T04:50:40;98351.88;;;10.82;88.02
12868;BME280;33517;49.866;8.320;2023-03-14T04:53:31;98345.38;;;10.85;87.45
12868;BME280;33517;49.866;8.320;2023-03-14T04:56:24;98339.91;;;10.86;87.37
12868;BME280;33517;49.866;8.320;2023-03-14T04:59:16;98333.19;;;10.90;87.03
12868;BME280;33517;49.866;8.320;2023-03-14T05:02:08;98330.78;;;10.89;87.47
12868;BME280;33517;49.866;8.320;2023-03-14T05:05:01;98319.59;;;10.93;86.89
12868;BME280;33517;49.866;8.320;2023-03-14T05:07:53;98308.06;;;10.94;86.64
12868;BME280;33517;49.866;8.320;2023-03-14T05:10:51;98300.16;;;10.94;86.40
12868;BME280;33517;49.866;8.320;2023-03-14T05:13:43;98300.75;;;10.96;86.09
12868;BME280;33517;49.866;8.320;2023-03-14T05:16:35;98308.63;;;10.96;86.52
12868;BME280;33517;49.866;8.320;2023-03-14T05:19:27;98301.16;;;10.93;86.48
12868;BME280;33517;49.866;8.320;2023-03-14T05:22:20;98305.41;;;10.94;86.74
12868;BME280;33517;49.866;8.320;2023-03-14T05:25:12;98306.41;;;10.93;86.51
12868;BME280;33517;49.866;8.320;2023-03-14T05:28:04;98313.09;;;10.96;86.89
12868;BME280;33517;49.866;8.320;2023-03-14T05:30:56;98314.47;;;10.98;86.99
12868;BME280;33517;49.866;8.320;2023-03-14T05:33:48;98319.06;;;11.03;86.26
12868;BME280;33517;49.866;8.320;2023-03-14T05:36:39;98321.13;;;11.01;86.40
12868;BME280;33517;49.866;8.320;2023-03-14T05:39:33;98313.38;;;11.06;85.75
12868;BME280;33517;49.866;8.320;2023-03-14T05:42:24;98311.53;;;11.06;85.51
12868;BME280;33517;49.866;8.320;2023-03-14T05:45:16;98314.41;;;11.05;85.99
12868;BME280;33517;49.866;8.320;2023-03-14T05:48:08;98317.84;;;11.05;85.59
12868;BME280;33517;49.866;8.320;2023-03-14T05:51:00;98320.91;;;11.02;85.69
12868;BME280;33517;49.866;8.320;2023-03-14T05:53:52;98328.72;;;11.09;85.87
12868;BME280;33517;49.866;8.320;2023-03-14T05:56:45;98325.50;;;11.07;85.86
12868;BME280;33517;49.866;8.320;2023-03-14T05:59:37;98321.19;;;11.12;86.14
12868;BME280;33517;49.866;8.320;2023-03-14T06:02:29;98322.38;;;11.17;85.48
12868;BME280;33517;49.866;8.320;2023-03-14T06:05:21;98314.13;;;11.13;85.01
12868;BME280;33517;49.866;8.320;2023-03-14T06:08:13;98315.50;;;11.16;85.22
12868;BME280;33517;49.866;8.320;2023-03-14T06:11:05;98318.50;;;11.19;84.47
12868;BME280;33517;49.866;8.320;2023-03-14T06:13:58;98316.88;;;11.18;84.66
12868;BME280;33517;49.866;8.320;2023-03-14T06:16:50;98320.47;;;11.24;84.56
12868;BME280;33517;49.866;8.320;2023-03-14T06:19:43;98319.09;;;11.21;84.05
12868;BME280;33517;49.866;8.320;2023-03-14T06:22:34;98318.88;;;11.23;84.36
12868;BME280;33517;49.866;8.320;2023-03-14T06:25:26;98327.94;;;11.27;84.35
12868;BME280;33517;49.866;8.320;2023-03-14T06:28:18;98325.31;;;11.27;83.55
12868;BME280;33517;49.866;8.320;2023-03-14T06:31:12;98317.75;;;11.30;83.93
12868;BME280;33517;49.866;8.320;2023-03-14T06:34:05;98312.25;;;11.32;83.41
12868;BME280;33517;49.866;8.320;2023-03-14T06:36:57;98308.69;;;11.26;84.04
12868;BME280;33517;49.866;8.320;2023-03-14T06:39:49;98301.66;;;11.20;84.19
12868;BME280;33517;49.866;8.320;2023-03-14T06:42:40;98300.84;;;11.20;85.30
12868;BME280;33517;49.866;8.320;2023-03-14T06:45:32;98290.91;;;11.22;84.61
12868;BME280;33517;49.866;8.320;2023-03-14T06:48:25;98292.41;;;11.18;84.95
12868;BME280;33517;49.866;8.320;2023-03-14T06:51:17;98288.97;;;11.17;85.41
12868;BME280;33517;49.866;8.320;2023-03-14T06:54:09;98287.69;;;11.20;85.44
12868;BME280;33517;49.866;8.320;2023-03-14T06:57:01;98283.19;;;11.27;85.28
12868;BME280;33517;49.866;8.320;2023-03-14T06:59:53;98279.66;;;11.33;85.09
12868;BME280;33517;49.866;8.320;2023-03-14T07:02:45;98279.34;;;11.41;84.35
12868;BME280;33517;49.866;8.320;2023-03-14T07:05:38;98268.84;;;11.52;84.16
12868;BME280;33517;49.866;8.320;2023-03-14T07:08:31;98270.59;;;11.58;83.63
12868;BME280;33517;49.866;8.320;2023-03-14T07:11:23;98271.63;;;11.57;83.37
12868;BME280;33517;49.866;8.320;2023-03-14T07:14:15;98271.06;;;11.55;82.81
12868;BME280;33517;49.866;8.320;2023-03-14T07:17:07;98279.31;;;11.59;82.91
12868;BME280;33517;49.866;8.320;2023-03-14T07:19:59;98276.00;;;11.63;83.48
12868;BME280;33517;49.866;8.320;2023-03-14T07:22:52;98278.00;;;11.68;82.94
12868;BME280;33517;49.866;8.320;2023-03-14T07:25:44;98271.59;;;11.75;84.27
12868;BME280;33517;49.866;8.320;2023-03-14T07:28:36;98292.25;;;11.78;84.15
12868;BME280;33517;49.866;8.320;2023-03-14T07:31:28;98281.25;;;11.81;83.80
12868;BME280;33517;49.866;8.320;2023-03-14T07:34:20;98293.53;;;11.87;83.53
12868;BME280;33517;49.866;8.320;2023-03-14T07:37:12;98286.81;;;12.03;82.69
12868;BME280;33517;49.866;8.320;2023-03-14T07:40:07;98285.56;;;12.06;82.51
12868;BME280;33517;49.866;8.320;2023-03-14T07:43:00;98298.00;;;11.87;83.46
12868;BME280;33517;49.866;8.320;2023-03-14T07:45:52;98302.78;;;11.78;83.95
12868;BME280;33517;49.866;8.320;2023-03-14T07:48:44;98305.66;;;11.88;84.35
12868;BME280;33517;49.866;8.320;2023-03-14T07:51:36;98307.06;;;11.91;83.48
12868;BME280;33517;49.866;8.320;2023-03-14T07:54:28;98308.28;;;11.88;83.34
12868;BME280;33517;49.866;8.320;2023-03-14T07:57:22;98303.84;;;11.89;83.44
12868;BME280;33517;49.866;8.320;2023-03-14T08:00:15;98307.06;;;11.91;83.97
12868;BME280;33517;49.866;8.320;2023-03-14T08:03:07;98296.16;;;12.63;81.68
12868;BME280;33517;49.866;8.320;2023-03-14T08:05:58;98303.38;;;13.14;80.59
12868;BME280;33517;49.866;8.320;2023-03-14T08:08:50;98315.66;;;13.88;77.40
12868;BME280;33517;49.866;8.320;2023-03-14T08:11:42;98304.81;;;14.84;72.71
12868;BME280;33517;49.866;8.320;2023-03-14T08:14:35;98319.31;;;14.15;73.12
12868;BME280;33517;49.866;8.320;2023-03-14T08:17:27;98316.97;;;13.46;75.74
12868;BME280;33517;49.866;8.320;2023-03-14T08:20:20;98325.78;;;13.51;75.73
12868;BME280;33517;49.866;8.320;2023-03-14T08:23:12;98312.38;;;14.42;73.46
12868;BME280;33517;49.866;8.320;2023-03-14T08:26:05;98309.53;;;17.89;61.91
12868;BME280;33517;49.866;8.320;2023-03-14T08:28:57;98329.28;;;15.73;65.49
12868;BME280;33517;49.866;8.320;2023-03-14T08:31:50;98324.56;;;14.76;69.09
12868;BME280;33517;49.866;8.320;2023-03-14T08:34:42;98329.66;;;14.17;70.99
12868;BME280;33517;49.866;8.320;2023-03-14T08:37:34;98315.59;;;14.44;70.50
12868;BME280;33517;49.866;8.320;2023-03-14T08:40:26;98311.31;;;16.06;68.87
12868;BME280;33517;49.866;8.320;2023-03-14T08:43:18;98297.59;;;18.62;58.92
12868;BME280;33517;49.866;8.320;2023-03-14T08:46:10;98310.09;;;17.34;59.72
12868;BME280;33517;49.866;8.320;2023-03-14T08:49:04;98315.22;;;15.99;64.19
12868;BME280;33517;49.866;8.320;2023-03-14T08:51:55;98317.44;;;15.58;66.28
12868;BME280;33517;49.866;8.320;2023-03-14T08:54:47;98292.72;;;16.01;65.93
12868;BME280;33517;49.866;8.320;2023-03-14T08:57:40;98302.91;;;18.26;59.34
12868;BME280;33517;49.866;8.320;2023-03-14T09:00:31;98294.31;;;19.05;55.18
12868;BME280;33517;49.866;8.320;2023-03-14T09:03:23;98283.44;;;18.86;56.69
12868;BME280;33517;49.866;8.320;2023-03-14T09:06:17;98285.50;;;19.73;53.90
12868;BME280;33517;49.866;8.320;2023-03-14T09:09:09;98288.94;;;21.37;49.77
12868;BME280;33517;49.866;8.320;2023-03-14T09:12:01;98293.25;;;21.09;47.72
12868;BME280;33517;49.866;8.320;2023-03-14T09:14:53;98298.81;;;17.64;55.20
12868;BME280;33517;49.866;8.320;2023-03-14T09:17:45;98297.88;;;18.35;55.28
12868;BME280;33517;49.866;8.320;2023-03-14T09:20:37;98305.66;;;16.24;60.35
12868;BME280;33517;49.866;8.320;2023-03-14T09:23:30;98308.47;;;16.13;63.19
12868;BME280;33517;49.866;8.320;2023-03-14T09:26:23;98302.31;;;15.81;64.27
12868;BME280;33517;49.866;8.320;2023-03-14T09:29:15;98308.19;;;15.61;65.58
12868;BME280;33517;49.866;8.320;2023-03-14T09:32:07;98308.22;;;16.14;64.63
12868;BME280;33517;49.866;8.320;2023-03-14T09:34:59;98309.56;;;16.17;64.35
12868;BME280;33517;49.866;8.320;2023-03-14T09:37:51;98307.84;;;16.06;65.84
12868;BME280;33517;49.866;8.320;2023-03-14T09:40:44;98306.84;;;16.75;62.66
12868;BME280;33517;49.866;8.320;2023-03-14T09:43:36;98299.16;;;15.84;65.15
12868;BME280;33517;49.866;8.320;2023-03-14T09:46:29;98309.59;;;15.04;68.44
12868;BME280;33517;49.866;8.320;2023-03-14T09:49:25;98303.06;;;14.73;70.32
12868;BME280;33517;49.866;8.320;2023-03-14T09:52:22;98309.47;;;14.77;71.03
12868;BME280;33517;49.866;8.320;2023-03-14T09:55:18;98308.50;;;14.83;71.12
12868;BME280;33517;49.866;8.320;2023-03-14T09:58:16;98297.09;;;14.83;70.97
12868;BME280;33517;49.866;8.320;2023-03-14T10:01:09;98321.13;;;14.59;72.27
12868;BME280;33517;49.866;8.320;2023-03-14T10:04:06;98320.84;;;14.77;72.89
12868;BME280;33517;49.866;8.320;2023-03-14T10:07:01;98300.47;;;14.78;71.98
12868;BME280;33517;49.866;8.320;2023-03-14T10:09:53;98309.66;;;14.54;72.79
12868;BME280;33517;49.866;8.320;2023-03-14T10:12:46;98312.69;;;14.62;73.55
12868;BME280;33517;49.866;8.320;2023-03-14T10:15:40;98312.91;;;14.77;73.31
12868;BME280;33517;49.866;8.320;2023-03-14T10:18:32;98313.03;;;14.33;73.63
12868;BME280;33517;49.866;8.320;2023-03-14T10:21:27;98319.91;;;13.89;75.55
12868;BME280;33517;49.866;8.320;2023-03-14T10:24:21;98314.34;;;13.74;76.89
12868;BME280;33517;49.866;8.320;2023-03-14T10:27:18;98318.88;;;13.62;78.37
12868;BME280;33517;49.866;8.320;2023-03-14T10:30:27;98310.19;;;13.38;79.19
12868;BME280;33517;49.866;8.320;2023-03-14T10:33:24;98307.41;;;13.17;80.62
12868;BME280;33517;49.866;8.320;2023-03-14T10:36:19;98310.06;;;13.05;80.71
12868;BME280;33517;49.866;8.320;2023-03-14T10:39:25;98307.97;;;13.07;79.86
12868;BME280;33517;49.866;8.320;2023-03-14T10:42:21;98308.31;;;13.11;80.31
12868;BME280;33517;49.866;8.320;2023-03-14T10:45:28;98300.94;;;13.24;79.67
12868;BME280;33517;49.866;8.320;2023-03-14T10:48:29;98306.69;;;13.21;79.87
12868;BME280;33517;49.866;8.320;2023-03-14T10:51:26;98304.03;;;13.21;79.89
12868;BME280;33517;49.866;8.320;2023-03-14T10:54:20;98302.44;;;13.32;79.54
12868;BME280;33517;49.866;8.320;2023-03-14T10:57:12;98296.97;;;13.50;78.59
12868;BME280;33517;49.866;8.320;2023-03-14T11:00:11;98312.97;;;13.43;79.03
12868;BME280;33517;49.866;8.320;2023-03-14T11:03:08;98319.00;;;13.55;78.97
12868;BME280;33517;49.866;8.320;2023-03-14T11:06:08;98314.97;;;13.64;79.51
12868;BME280;33517;49.866;8.320;2023-03-14T11:09:07;98323.00;;;13.58;79.09
12868;BME280;33517;49.866;8.320;2023-03-14T11:12:08;98321.72;;;13.72;78.61
12868;BME280;33517;49.866;8.320;2023-03-14T11:15:14;98323.44;;;13.66;79.34
12868;BME280;33517;49.866;8.320;2023-03-14T11:18:46;98326.47;;;13.58;78.84
12868;BME280;33517;49.866;8.320;2023-03-14T11:21:46;98333.81;;;13.56;78.67
12868;BME280;33517;49.866;8.320;2023-03-14T11:24:49;98328.53;;;13.56;79.09
12868;BME280;33517;49.866;8.320;2023-03-14T11:27:43;98335.72;;;13.72;78.48
12868;BME280;33517;49.866;8.320;2023-03-14T11:30:39;98332.91;;;14.07;77.01
12868;BME280;33517;49.866;8.320;2023-03-14T11:33:36;98330.41;;;14.29;75.57
12868;BME280;33517;49.866;8.320;2023-03-14T11:36:31;98337.34;;;14.18;75.49
12868;BME280;33517;49.866;8.320;2023-03-14T11:39:31;98335.75;;;14.17;75.76
12868;BME280;33517;49.866;8.320;2023-03-14T11:42:28;98349.88;;;13.95;77.21
12868;BME280;33517;49.866;8.320;2023-03-14T11:45:25;98365.66;;;13.50;81.48
12868;BME280;33517;49.866;8.320;2023-03-14T11:48:25;98395.88;;;12.84;84.98
12868;BME280;33517;49.866;8.320;2023-03-14T11:51:23;98403.66;;;12.15;92.68
12868;BME280;33517;49.866;8.320;2023-03-14T11:54:18;98428.84;;;12.41;90.19
12868;BME280;33517;49.866;8.320;2023-03-14T11:57:17;98428.13;;;12.98;86.89
12868;BME280;33517;49.866;8.320;2023-03-14T12:00:16;98434.50;;;13.09;79.80
12868;BME280;33517;49.866;8.320;2023-03-14T12:03:12;98478.06;;;12.99;76.94
12868;BME280;33517;49.866;8.320;2023-03-14T12:06:13;98475.13;;;13.19;73.15
12868;BME280;33517;49.866;8.320;2023-03-14T12:09:08;98504.69;;;13.39;69.58
12868;BME280;33517;49.866;8.320;2023-03-14T12:12:02;98535.81;;;13.37;66.91
12868;BME280;33517;49.866;8.320;2023-03-14T12:14:58;98537.06;;;13.35;67.46
12868;BME280;33517;49.866;8.320;2023-03-14T12:17:53;98558.72;;;13.14;65.64
12868;BME280;33517;49.866;8.320;2023-03-14T12:20:51;98560.38;;;13.84;68.79
12868;BME280;33517;49.866;8.320;2023-03-14T12:23:48;98574.09;;;13.69;65.13
12868;BME280;33517;49.866;8.320;2023-03-14T12:26:53;98582.09;;;15.78;60.04
12868;BME280;33517;49.866;8.320;2023-03-14T12:29:58;98577.41;;;16.88;54.16
12868;BME280;33517;49.866;8.320;2023-03-14T12:36:55;98623.06;;;13.83;61.70
12868;BME280;33517;49.866;8.320;2023-03-14T12:39:58;98638.25;;;13.35;65.13
12868;BME280;33517;49.866;8.320;2023-03-14T12:42:57;98648.78;;;12.76;66.09
12868;BME280;33517;49.866;8.320;2023-03-14T12:46:14;98670.72;;;12.58;67.01
12868;BME280;33517;49.866;8.320;2023-03-14T12:49:08;98672.91;;;12.61;68.18
12868;BME280;33517;49.866;8.320;2023-03-14T12:52:01;98694.66;;;12.39;69.58
12868;BME280;33517;49.866;8.320;2023-03-14T12:54:57;98695.25;;;11.98;69.60
12868;BME280;33517;49.866;8.320;2023-03-14T12:57:56;98700.50;;;11.73;69.57
12868;BME280;33517;49.866;8.320;2023-03-14T13:00:55;98715.94;;;11.94;70.45
12868;BME280;33517;49.866;8.320;2023-03-14T13:03:51;98711.16;;;12.52;68.14
12868;BME280;33517;49.866;8.320;2023-03-14T13:06:46;98727.78;;;12.35;67.73
12868;BME280;33517;49.866;8.320;2023-03-14T13:09:59;98744.28;;;12.06;69.56
12868;BME280;33517;49.866;8.320;2023-03-14T13:12:55;98769.75;;;12.12;70.56
12868;BME280;33517;49.866;8.320;2023-03-14T13:15:48;98777.84;;;11.92;70.26
12868;BME280;33517;49.866;8.320;2023-03-14T13:18:42;98791.63;;;11.50;71.53
12868;BME280;33517;49.866;8.320;2023-03-14T13:21:36;98810.47;;;10.96;74.76
12868;BME280;33517;49.866;8.320;2023-03-14T13:24:29;98801.34;;;10.98;75.98
12868;BME280;33517;49.866;8.320;2023-03-14T13:27:24;98809.09;;;11.44;75.96
12868;BME280;33517;49.866;8.320;2023-03-14T13:30:19;98795.81;;;12.01;69.73
12868;BME280;33517;49.866;8.320;2023-03-14T13:33:14;98819.44;;;12.64;66.15
12868;BME280;33517;49.866;8.320;2023-03-14T13:36:08;98833.16;;;12.23;66.16
12868;BME280;33517;49.866;8.320;2023-03-14T13:39:02;98845.59;;;12.16;67.47
12868;BME280;33517;49.866;8.320;2023-03-14T13:41:58;98852.28;;;12.19;66.79
12868;BME280;33517;49.866;8.320;2023-03-14T13:44:51;98860.44;;;12.11;67.71
12868;BME280;33517;49.866;8.320;2023-03-14T13:47:45;98851.19;;;12.01;67.12
12868;BME280;33517;49.866;8.320;2023-03-14T13:50:45;98870.41;;;12.09;65.59
12868;BME280;33517;49.866;8.320;2023-03-14T13:53:43;98907.31;;;12.02;64.99
12868;BME280;33517;49.866;8.320;2023-03-14T13:56:36;98905.63;;;14.39;59.55
12868;BME280;33517;49.866;8.320;2023-03-14T13:59:29;98903.09;;;15.83;53.33
12868;BME280;33517;49.866;8.320;2023-03-14T14:02:22;98916.13;;;15.85;51.56
12868;BME280;33517;49.866;8.320;2023-03-14T14:05:15;98937.28;;;16.08;52.78
12868;BME280;33517;49.866;8.320;2023-03-14T14:08:10;98931.16;;;16.19;49.55
12868;BME280;33517;49.866;8.320;2023-03-14T14:11:03;98948.63;;;16.31;50.82
12868;BME280;33517;49.866;8.320;2023-03-14T14:13:57;98962.94;;;15.91;49.89
12868;BME280;33517;49.866;8.320;2023-03-14T14:16:50;98962.00;;;15.45;50.15
12868;BME280;33517;49.866;8.320;2023-03-14T14:19:43;98975.50;;;13.84;52.15
12868;BME280;33517;49.866;8.320;2023-03-14T14:22:38;98991.59;;;13.22;54.78
12868;BME280;33517;49.866;8.320;2023-03-14T14:29:25;98990.97;;;12.64;56.36
12868;BME280;33517;49.866;8.320;2023-03-14T14:32:17;99027.31;;;12.24;56.81
12868;BME280;33517;49.866;8.320;2023-03-14T14:35:21;99017.72;;;11.85;58.30
12868;BME280;33517;49.866;8.320;2023-03-14T14:38:16;99037.63;;;11.55;59.55
12868;BME280;33517;49.866;8.320;2023-03-14T14:41:11;99033.38;;;11.41;59.61
12868;BME280;33517;49.866;8.320;2023-03-14T14:44:04;99037.41;;;11.57;59.24
12868;BME280;33517;49.866;8.320;2023-03-14T14:46:57;99058.66;;;11.62;59.36
12868;BME280;33517;49.866;8.320;2023-03-14T14:49:51;99062.94;;;11.63;60.46
12868;BME280;33517;49.866;8.320;2023-03-14T14:52:44;99046.09;;;11.90;59.47
12868;BME280;33517;49.866;8.320;2023-03-14T14:55:39;99052.66;;;13.07;57.29
12868;BME280;33517;49.866;8.320;2023-03-14T14:58:35;99063.19;;;14.42;55.17
12868;BME280;33517;49.866;8.320;2023-03-14T15:01:32;99077.00;;;14.44;52.12
12868;BME280;33517;49.866;8.320;2023-03-14T15:04:27;99084.00;;;13.96;53.08
12868;BME280;33517;49.866;8.320;2023-03-14T15:07:21;99084.31;;;13.63;51.31
12868;BME280;33517;49.866;8.320;2023-03-14T15:10:14;99110.41;;;12.97;53.13
12868;BME280;33517;49.866;8.320;2023-03-14T15:13:06;99106.25;;;12.19;52.11
12868;BME280;33517;49.866;8.320;2023-03-14T15:15:58;99129.22;;;11.79;54.20
12868;BME280;33517;49.866;8.320;2023-03-14T15:18:53;99142.38;;;11.60;54.33
12868;BME280;33517;49.866;8.320;2023-03-14T15:21:47;99134.47;;;11.53;53.52
12868;BME280;33517;49.866;8.320;2023-03-14T15:24:39;99146.03;;;11.46;53.73
12868;BME280;33517;49.866;8.320;2023-03-14T15:27:32;99140.13;;;11.37;53.91
12868;BME280;33517;49.866;8.320;2023-03-14T15:30:24;99167.03;;;11.20;54.40